Time;durP1;ratioP1;P1;durP2;ratioP2;P2;SDS_P1;SDS_P2;PMS_P1;PMS_P2;Temp;Humidity;BMP_temperature;BMP_pressure;BME280_temperature;BME280_humidity;BME280_pressure;Samples;Min_cycle;Max_cycle;Signal;HPM_P1;HPM_P2
2023/09/16 00:01:41;;;;;;;14.48;11.65;;;13.20;99.90;;;;;;5029573;28;20483;-73
2023/09/16 00:04:08;;;;;;;12.35;10.07;;;13.20;99.90;;;;;;5014063;28;20046;-73
2023/09/16 00:06:34;;;;;;;14.52;11.45;;;13.10;99.90;;;;;;5030389;28;20080;-73
2023/09/16 00:09:00;;;;;;;14.55;11.05;;;13.10;99.90;;;;;;5030213;28;20158;-73
2023/09/16 00:11:26;;;;;;;14.13;11.75;;;13.00;99.90;;;;;;5030455;28;20060;-73
2023/09/16 00:13:51;;;;;;;13.45;10.55;;;13.00;99.90;;;;;;5031529;28;20033;-73
2023/09/16 00:16:17;;;;;;;16.55;11.73;;;13.00;99.90;;;;;;5033690;28;20099;-73
2023/09/16 00:18:43;;;;;;;16.05;13.27;;;12.90;99.90;;;;;;5034081;28;20141;-73
2023/09/16 00:21:10;;;;;;;14.65;12.13;;;12.90;99.90;;;;;;5033007;28;20088;-73
2023/09/16 00:23:36;;;;;;;16.27;12.60;;;12.90;99.90;;;;;;5035506;28;20099;-73
2023/09/16 00:26:03;;;;;;;16.65;12.13;;;12.90;99.90;;;;;;5034330;28;20041;-73
2023/09/16 00:28:30;;;;;;;15.25;12.30;;;12.90;99.90;;;;;;5033435;28;20045;-73
2023/09/16 00:30:57;;;;;;;15.82;13.40;;;12.80;99.90;;;;;;5034060;28;20041;-73
2023/09/16 00:33:23;;;;;;;18.33;14.90;;;12.80;99.90;;;;;;5034165;28;20037;-73
2023/09/16 00:35:50;;;;;;;15.00;12.52;;;12.80;99.90;;;;;;5033611;28;20560;-73
2023/09/16 00:38:15;;;;;;;17.92;15.48;;;12.80;99.90;;;;;;5033863;28;20053;-73
2023/09/16 00:40:42;;;;;;;17.42;14.38;;;12.70;99.90;;;;;;5034925;28;20115;-73
2023/09/16 00:43:07;;;;;;;16.95;15.20;;;12.70;99.90;;;;;;5033247;28;20080;-73
2023/09/16 00:45:33;;;;;;;17.77;15.13;;;12.70;99.90;;;;;;5033700;28;20068;-74
2023/09/16 00:47:59;;;;;;;19.40;15.70;;;12.70;99.90;;;;;;5033561;28;20038;-73
2023/09/16 00:50:25;;;;;;;15.52;12.63;;;12.70;99.90;;;;;;5032744;28;20045;-73
2023/09/16 00:52:55;;;;;;;15.82;13.70;;;12.70;99.90;;;;;;5034392;28;20045;-73
2023/09/16 00:55:21;;;;;;;18.27;14.23;;;12.60;99.90;;;;;;5034625;28;20052;-73
2023/09/16 00:57:50;;;;;;;15.80;14.18;;;12.60;99.90;;;;;;5033023;28;20041;-73
2023/09/16 01:00:16;;;;;;;17.90;15.60;;;12.60;99.90;;;;;;5033216;28;20556;-73
2023/09/16 01:02:43;;;;;;;18.25;16.35;;;12.60;99.90;;;;;;5033018;28;20124;-73
2023/09/16 01:05:17;;;;;;;19.50;15.50;;;12.60;99.90;;;;;;5032876;28;20441;-73
2023/09/16 01:07:45;;;;;;;15.82;14.13;;;12.60;99.90;;;;;;5033278;28;20112;-73
2023/09/16 01:10:11;;;;;;;18.40;14.85;;;12.50;99.90;;;;;;5033204;28;20045;-73
2023/09/16 01:12:42;;;;;;;17.02;15.20;;;12.50;99.90;;;;;;5032643;28;20076;-73
2023/09/16 01:15:09;;;;;;;15.60;13.88;;;12.50;99.90;;;;;;5016404;28;20044;-73
2023/09/16 01:17:43;;;;;;;19.17;16.30;;;12.50;99.90;;;;;;5032413;28;20084;-73
2023/09/16 01:20:15;;;;;;;18.73;16.83;;;12.50;99.90;;;;;;5032906;28;20045;-73
2023/09/16 01:22:45;;;;;;;19.40;16.10;;;12.50;99.90;;;;;;5032820;28;20042;-73
2023/09/16 01:25:17;;;;;;;16.00;13.65;;;12.50;99.90;;;;;;5032679;28;20069;-73
2023/09/16 01:27:43;;;;;;;15.57;13.73;;;12.40;99.90;;;;;;5033109;28;20034;-73
2023/09/16 01:30:10;;;;;;;16.40;13.45;;;12.40;99.90;;;;;;5032663;28;20080;-73
2023/09/16 01:32:44;;;;;;;16.08;13.07;;;12.40;99.90;;;;;;5032001;28;20038;-73
2023/09/16 01:35:14;;;;;;;16.65;14.60;;;12.40;99.90;;;;;;5033036;28;20045;-73
2023/09/16 01:37:43;;;;;;;19.10;16.20;;;12.40;99.90;;;;;;5033034;28;20134;-73
2023/09/16 01:40:11;;;;;;;20.88;16.77;;;12.30;99.90;;;;;;5031908;28;20077;-73
2023/09/16 01:42:37;;;;;;;19.67;16.58;;;12.30;99.90;;;;;;5033302;28;20022;-74
2023/09/16 01:45:04;;;;;;;16.90;15.20;;;12.30;99.90;;;;;;5032526;28;20088;-73
2023/09/16 01:47:30;;;;;;;17.75;15.93;;;12.30;99.90;;;;;;5031856;28;20144;-73
2023/09/16 01:49:55;;;;;;;15.43;13.18;;;12.20;99.90;;;;;;5032825;28;20146;-74
2023/09/16 01:52:22;;;;;;;17.17;14.23;;;12.20;99.90;;;;;;5015929;28;20033;-73
2023/09/16 01:54:48;;;;;;;16.40;14.55;;;12.20;99.90;;;;;;5031665;28;20045;-73
2023/09/16 01:57:14;;;;;;;18.08;16.13;;;12.20;99.90;;;;;;5032263;28;20037;-73
2023/09/16 01:59:39;;;;;;;19.08;17.08;;;12.20;99.90;;;;;;5031868;28;20038;-74
2023/09/16 02:02:05;;;;;;;19.95;17.55;;;12.10;99.90;;;;;;5032266;28;20061;-74
2023/09/16 02:04:31;;;;;;;16.38;14.68;;;12.10;99.90;;;;;;5032388;28;20041;-73
2023/09/16 02:06:56;;;;;;;16.60;14.88;;;12.10;99.90;;;;;;5033151;28;20529;-73
2023/09/16 02:09:22;;;;;;;17.75;14.68;;;12.10;99.90;;;;;;5032087;28;20038;-73
2023/09/16 02:11:48;;;;;;;17.95;14.35;;;12.10;99.90;;;;;;5032937;28;20124;-73
2023/09/16 02:14:18;;;;;;;22.17;17.00;;;12.10;99.90;;;;;;5031234;28;20068;-73
2023/09/16 02:16:44;;;;;;;17.38;15.48;;;12.10;99.90;;;;;;5032105;28;20445;-73
2023/09/16 02:19:11;;;;;;;19.55;17.48;;;12.10;99.90;;;;;;5032148;28;20386;-73
2023/09/16 02:21:37;;;;;;;20.30;17.92;;;12.10;99.90;;;;;;5031160;28;20049;-73
2023/09/16 02:24:03;;;;;;;20.83;17.65;;;12.00;99.90;;;;;;5032348;28;20497;-73
2023/09/16 02:26:29;;;;;;;18.77;16.80;;;12.00;99.90;;;;;;5031371;28;20044;-74
2023/09/16 02:28:54;;;;;;;18.88;15.68;;;12.00;99.90;;;;;;5032647;28;20056;-73
2023/09/16 02:31:20;;;;;;;18.10;15.90;;;12.00;99.90;;;;;;5031393;28;20486;-73
2023/09/16 02:33:46;;;;;;;17.70;15.80;;;11.90;99.90;;;;;;5031336;28;20466;-73
2023/09/16 02:36:11;;;;;;;19.80;15.57;;;11.90;99.90;;;;;;5030883;28;20041;-73
2023/09/16 02:38:37;;;;;;;15.38;12.23;;;11.90;99.90;;;;;;5031240;28;20103;-73
2023/09/16 02:41:06;;;;;;;18.17;14.20;;;11.90;99.90;;;;;;5033017;28;20376;-73
2023/09/16 02:43:31;;;;;;;18.42;15.07;;;11.90;99.90;;;;;;5014405;28;20048;-72
2023/09/16 02:45:57;;;;;;;16.48;13.80;;;11.80;99.90;;;;;;5031810;28;20120;-73
2023/09/16 02:48:23;;;;;;;14.13;11.90;;;11.90;99.90;;;;;;5031479;28;20099;-73
2023/09/16 02:50:49;;;;;;;15.57;13.95;;;11.80;99.90;;;;;;5030616;28;20056;-73
2023/09/16 02:53:16;;;;;;;15.02;13.40;;;11.80;99.90;;;;;;5014789;28;20088;-73
2023/09/16 02:55:42;;;;;;;17.02;15.10;;;11.80;99.90;;;;;;5031391;28;20068;-73
2023/09/16 02:58:08;;;;;;;19.88;16.13;;;11.80;99.90;;;;;;5030915;28;20045;-73
2023/09/16 03:00:33;;;;;;;20.23;16.77;;;11.80;99.90;;;;;;5038125;28;20499;-73
2023/09/16 03:02:59;;;;;;;17.38;14.70;;;11.80;99.90;;;;;;5032175;28;20088;-73
2023/09/16 03:05:25;;;;;;;19.00;15.82;;;11.70;99.90;;;;;;5014801;28;20110;-73
2023/09/16 03:07:51;;;;;;;22.02;19.05;;;11.70;99.90;;;;;;5030733;28;20399;-73
2023/09/16 03:10:17;;;;;;;20.67;17.80;;;11.80;99.90;;;;;;5013947;28;20030;-73
2023/09/16 03:12:45;;;;;;;16.17;14.13;;;11.70;99.90;;;;;;5031354;28;20118;-73
2023/09/16 03:15:11;;;;;;;21.63;18.13;;;11.70;99.90;;;;;;5030962;28;20077;-74
2023/09/16 03:17:37;;;;;;;17.77;14.65;;;11.70;99.90;;;;;;5030309;28;20138;-73
2023/09/16 03:20:03;;;;;;;15.98;13.63;;;11.60;99.90;;;;;;5031428;28;20044;-73
2023/09/16 03:22:28;;;;;;;16.10;13.32;;;11.60;99.90;;;;;;5030869;28;20399;-73
2023/09/16 03:24:54;;;;;;;20.55;17.70;;;11.60;99.90;;;;;;5030475;28;20037;-73
2023/09/16 03:27:20;;;;;;;18.60;15.25;;;11.60;99.90;;;;;;5031963;28;20037;-73
2023/09/16 03:29:45;;;;;;;17.15;15.15;;;11.60;99.90;;;;;;5030777;28;20037;-73
2023/09/16 03:32:11;;;;;;;19.02;17.08;;;11.50;99.90;;;;;;5040407;28;20440;-73
2023/09/16 03:34:37;;;;;;;17.83;15.93;;;11.50;99.90;;;;;;5039449;28;20125;-73
2023/09/16 03:37:02;;;;;;;19.13;16.10;;;11.50;99.90;;;;;;5030930;28;20041;-73
2023/09/16 03:39:28;;;;;;;18.52;15.48;;;11.50;99.90;;;;;;5029934;28;20046;-73
2023/09/16 03:41:55;;;;;;;17.00;15.15;;;11.50;99.90;;;;;;5014555;28;20044;-73
2023/09/16 03:44:20;;;;;;;15.20;13.38;;;11.50;99.90;;;;;;5014100;28;20483;-73
2023/09/16 03:46:47;;;;;;;15.07;12.07;;;11.50;99.90;;;;;;5030002;28;20096;-73
2023/09/16 03:49:13;;;;;;;13.88;12.45;;;11.40;99.90;;;;;;5033957;28;20553;-73
2023/09/16 03:51:39;;;;;;;18.10;14.45;;;11.40;99.90;;;;;;5034645;28;20075;-73
2023/09/16 03:54:06;;;;;;;16.10;13.07;;;11.40;99.90;;;;;;5035788;28;20124;-74
2023/09/16 03:56:32;;;;;;;13.35;11.80;;;11.40;99.90;;;;;;5034993;28;20398;-73
2023/09/16 03:58:58;;;;;;;19.77;16.50;;;11.30;99.90;;;;;;5018233;28;20080;-73
2023/09/16 04:01:24;;;;;;;16.45;14.40;;;11.30;99.90;;;;;;5033152;28;20084;-73
2023/09/16 04:03:49;;;;;;;15.68;13.95;;;11.30;99.90;;;;;;5034757;28;20037;-73
2023/09/16 04:06:15;;;;;;;16.67;14.40;;;11.30;99.90;;;;;;5017557;28;20466;-73
2023/09/16 04:08:41;;;;;;;17.80;14.85;;;11.20;99.90;;;;;;5034344;28;20073;-73
2023/09/16 04:11:07;;;;;;;17.20;13.70;;;11.20;99.90;;;;;;5034349;28;20080;-73
2023/09/16 04:13:33;;;;;;;13.40;10.50;;;11.20;99.90;;;;;;5034822;28;20065;-73
2023/09/16 04:15:58;;;;;;;16.13;13.98;;;11.20;99.90;;;;;;5034496;28;20037;-73
2023/09/16 04:18:24;;;;;;;15.25;11.98;;;11.20;99.90;;;;;;5035365;28;20073;-74
2023/09/16 04:20:55;;;;;;;16.33;14.60;;;11.20;99.90;;;;;;5034515;28;20109;-73
2023/09/16 04:23:21;;;;;;;15.50;13.80;;;11.10;99.90;;;;;;5033840;28;20068;-73
2023/09/16 04:25:53;;;;;;;15.88;14.13;;;11.10;99.90;;;;;;5034060;28;20041;-73
2023/09/16 04:28:18;;;;;;;13.35;11.95;;;11.20;99.90;;;;;;5033495;28;20112;-73
2023/09/16 04:30:51;;;;;;;13.50;11.80;;;11.20;99.90;;;;;;5033539;28;20435;-73
2023/09/16 04:33:17;;;;;;;16.83;14.85;;;11.10;99.90;;;;;;5033377;28;20048;-73
2023/09/16 04:35:45;;;;;;;14.88;13.00;;;11.10;99.90;;;;;;5033040;28;20141;-73
2023/09/16 04:38:12;;;;;;;14.05;12.43;;;11.10;99.90;;;;;;5033848;28;20048;-73
2023/09/16 04:40:38;;;;;;;15.90;14.27;;;11.10;99.90;;;;;;5033751;28;20056;-73
2023/09/16 04:43:05;;;;;;;13.30;11.68;;;11.10;99.90;;;;;;5033398;28;20116;-73
2023/09/16 04:45:31;;;;;;;15.68;11.80;;;11.10;99.90;;;;;;5033554;28;20498;-73
2023/09/16 04:47:57;;;;;;;14.52;12.70;;;11.10;99.90;;;;;;5034076;28;20129;-68
2023/09/16 04:50:23;;;;;;;14.65;11.68;;;11.10;99.90;;;;;;5034120;28;20124;-68
2023/09/16 04:52:49;;;;;;;15.90;12.48;;;11.10;99.90;;;;;;5033836;28;20048;-68
2023/09/16 04:55:14;;;;;;;18.05;13.20;;;11.10;99.90;;;;;;5034869;28;20512;-68
2023/09/16 04:57:41;;;;;;;16.25;12.85;;;11.10;99.90;;;;;;5032478;28;20041;-68
2023/09/16 05:00:07;;;;;;;16.15;13.07;;;11.10;99.90;;;;;;5032735;28;20053;-69
2023/09/16 05:02:33;;;;;;;16.88;13.40;;;11.10;99.90;;;;;;5032466;28;20056;-68
2023/09/16 05:05:03;;;;;;;16.42;11.93;;;11.10;99.90;;;;;;5033620;28;20536;-68
2023/09/16 05:07:28;;;;;;;16.20;13.80;;;11.10;99.90;;;;;;5016428;28;20041;-68
2023/09/16 05:09:56;;;;;;;15.77;12.90;;;11.10;99.90;;;;;;5032819;28;20449;-69
2023/09/16 05:12:22;;;;;;;14.43;12.35;;;11.10;99.90;;;;;;5032941;28;20037;-68
2023/09/16 05:14:49;;;;;;;13.55;11.65;;;11.10;99.90;;;;;;5033548;28;20502;-68
2023/09/16 05:17:15;;;;;;;14.07;12.13;;;11.10;99.90;;;;;;5032256;28;20107;-68
2023/09/16 05:19:41;;;;;;;14.60;11.80;;;11.00;99.90;;;;;;5033165;28;20037;-69
2023/09/16 05:22:07;;;;;;;13.57;11.38;;;11.00;99.90;;;;;;5032840;28;20072;-68
2023/09/16 05:24:33;;;;;;;15.40;11.32;;;11.00;99.90;;;;;;5031954;28;20124;-73
2023/09/16 05:26:59;;;;;;;15.90;12.43;;;11.00;99.90;;;;;;5033244;28;20112;-72
2023/09/16 05:29:25;;;;;;;12.52;10.77;;;11.00;99.90;;;;;;5032849;28;20514;-73
2023/09/16 05:31:51;;;;;;;13.75;10.50;;;11.00;99.90;;;;;;5032429;28;20081;-72
2023/09/16 05:34:17;;;;;;;12.98;10.95;;;11.00;99.90;;;;;;5033222;28;20049;-73
2023/09/16 05:36:42;;;;;;;12.93;10.38;;;11.00;99.90;;;;;;5032994;28;20410;-73
2023/09/16 05:39:08;;;;;;;18.98;11.10;;;10.90;99.90;;;;;;5032217;28;20459;-73
2023/09/16 05:41:35;;;;;;;11.93;10.55;;;11.00;99.90;;;;;;5016136;28;20056;-73
2023/09/16 05:44:01;;;;;;;14.70;11.65;;;11.00;99.90;;;;;;5034047;28;20047;-73
2023/09/16 05:46:27;;;;;;;12.40;10.52;;;11.00;99.90;;;;;;5033477;28;20037;-73
2023/09/16 05:49:06;;;;;;;12.95;9.65;;;11.10;99.90;;;;;;5016571;28;20482;-73
2023/09/16 05:51:33;;;;;;;11.82;9.73;;;11.10;99.90;;;;;;5015913;28;20387;-73
2023/09/16 05:53:58;;;;;;;11.27;9.75;;;11.10;99.90;;;;;;5032059;28;20037;-73
2023/09/16 05:56:24;;;;;;;11.43;9.35;;;11.10;99.90;;;;;;5032298;28;20045;-73
2023/09/16 05:58:50;;;;;;;11.38;9.65;;;11.10;99.90;;;;;;5031609;28;20124;-73
2023/09/16 06:01:15;;;;;;;13.52;11.18;;;11.10;99.90;;;;;;5046244;28;20049;-73
2023/09/16 06:03:41;;;;;;;11.38;9.20;;;11.20;99.90;;;;;;5035453;28;20041;-73
2023/09/16 06:06:07;;;;;;;14.98;9.63;;;11.30;99.90;;;;;;5034960;28;20541;-73
2023/09/16 06:08:33;;;;;;;14.68;11.48;;;11.30;99.90;;;;;;5018931;28;20041;-73
2023/09/16 06:10:58;;;;;;;13.32;11.93;;;11.30;99.90;;;;;;5018606;28;20049;-73
2023/09/16 06:13:24;;;;;;;14.50;12.82;;;11.40;99.90;;;;;;5052168;28;20044;-73
2023/09/16 06:15:50;;;;;;;12.88;11.57;;;11.50;99.90;;;;;;5035643;28;20037;-73
2023/09/16 06:18:16;;;;;;;14.45;11.80;;;11.50;99.90;;;;;;5035422;28;20102;-73
2023/09/16 06:20:42;;;;;;;13.10;11.68;;;11.60;99.90;;;;;;5051911;28;20513;-74
2023/09/16 06:23:08;;;;;;;14.27;12.77;;;11.70;99.90;;;;;;5034638;28;20038;-73
2023/09/16 06:25:34;;;;;;;14.10;12.60;;;11.70;99.90;;;;;;5034416;28;20052;-73
2023/09/16 06:27:59;;;;;;;14.98;13.45;;;11.80;99.90;;;;;;5017786;28;20116;-73
2023/09/16 06:30:25;;;;;;;16.77;15.07;;;11.90;99.90;;;;;;5018676;28;20047;-73
2023/09/16 06:32:54;;;;;;;16.15;14.65;;;12.00;99.90;;;;;;5034646;28;20076;-73
2023/09/16 06:35:20;;;;;;;16.15;14.07;;;12.10;99.90;;;;;;5052307;28;20033;-73
2023/09/16 06:37:46;;;;;;;18.95;16.95;;;12.10;99.90;;;;;;5035091;28;20457;-73
2023/09/16 06:40:12;;;;;;;16.92;14.95;;;12.20;99.90;;;;;;5034784;28;20072;-73
2023/09/16 06:42:38;;;;;;;18.13;16.23;;;12.40;99.90;;;;;;5034104;28;20045;-73
2023/09/16 06:45:04;;;;;;;19.48;17.48;;;12.40;99.90;;;;;;5052839;28;20044;-74
2023/09/16 06:47:29;;;;;;;17.85;15.95;;;12.50;99.90;;;;;;5052154;28;20048;-73
2023/09/16 06:49:56;;;;;;;19.25;17.23;;;12.60;99.90;;;;;;5034631;28;20041;-73
2023/09/16 06:52:22;;;;;;;19.83;17.73;;;12.60;99.90;;;;;;5018044;28;20040;-73
2023/09/16 06:54:49;;;;;;;20.60;18.40;;;12.70;99.90;;;;;;5034395;28;20604;-73
2023/09/16 06:57:15;;;;;;;18.40;16.48;;;12.80;99.90;;;;;;5034046;28;20053;-73
2023/09/16 06:59:41;;;;;;;19.95;17.85;;;12.90;99.90;;;;;;5017662;28;20041;-73
2023/09/16 07:02:06;;;;;;;21.73;19.42;;;12.90;99.90;;;;;;5013112;28;20041;-73
2023/09/16 07:04:32;;;;;;;20.70;18.35;;;13.10;99.90;;;;;;5011133;28;20079;-74
2023/09/16 07:06:58;;;;;;;20.75;17.80;;;13.10;99.90;;;;;;5034520;28;20033;-73
2023/09/16 07:09:24;;;;;;;20.45;18.38;;;13.30;99.90;;;;;;5028192;28;20120;-73
2023/09/16 07:11:50;;;;;;;19.92;17.85;;;13.30;99.90;;;;;;5013991;28;20454;-74
2023/09/16 07:14:15;;;;;;;19.58;17.13;;;13.40;99.90;;;;;;5016024;28;20414;-74
2023/09/16 07:16:41;;;;;;;19.25;16.40;;;13.50;99.90;;;;;;5031791;28;20119;-73
2023/09/16 07:19:07;;;;;;;18.35;16.35;;;13.60;99.90;;;;;;5031586;28;20402;-73
2023/09/16 07:21:34;;;;;;;18.40;16.45;;;13.70;99.90;;;;;;5014785;28;20029;-73
2023/09/16 07:24:01;;;;;;;20.27;18.08;;;13.80;99.90;;;;;;5031863;28;20037;-72
2023/09/16 07:26:30;;;;;;;19.08;16.92;;;13.90;99.90;;;;;;5015663;28;20036;-73
2023/09/16 07:28:57;;;;;;;19.20;16.58;;;14.00;99.90;;;;;;5032666;28;20482;-73
2023/09/16 07:31:22;;;;;;;18.33;15.77;;;14.10;99.90;;;;;;5031975;28;20777;-74
2023/09/16 07:33:48;;;;;;;18.95;16.90;;;14.20;99.90;;;;;;5031872;28;20041;-74
2023/09/16 07:36:14;;;;;;;20.20;16.40;;;14.20;99.90;;;;;;5032209;28;20040;-74
2023/09/16 07:38:40;;;;;;;19.90;17.45;;;14.40;99.90;;;;;;5031732;28;20048;-76
2023/09/16 07:41:05;;;;;;;17.42;15.48;;;14.40;99.90;;;;;;5032078;28;20139;-73
2023/09/16 07:43:31;;;;;;;19.00;17.10;;;14.50;99.90;;;;;;5032161;28;20076;-74
2023/09/16 07:45:58;;;;;;;18.40;16.20;;;14.70;99.90;;;;;;5031382;28;20041;-76
2023/09/16 07:48:24;;;;;;;16.77;14.98;;;14.80;99.90;;;;;;5031441;28;20059;-75
2023/09/16 07:50:49;;;;;;;16.45;14.38;;;14.90;99.90;;;;;;5032294;28;20124;-76
2023/09/16 07:53:15;;;;;;;17.55;15.63;;;15.10;99.90;;;;;;5031807;28;20091;-75
2023/09/16 07:55:41;;;;;;;18.23;16.35;;;15.10;99.90;;;;;;5032331;28;20497;-75
2023/09/16 07:58:07;;;;;;;18.98;16.77;;;15.20;99.90;;;;;;5032505;28;20398;-75
2023/09/16 08:00:33;;;;;;;20.52;18.35;;;15.30;99.90;;;;;;5028619;28;20060;-75
2023/09/16 08:02:58;;;;;;;19.35;16.85;;;15.40;99.90;;;;;;5029315;28;20091;-75
2023/09/16 08:05:24;;;;;;;16.83;14.82;;;15.50;99.90;;;;;;5028128;28;20076;-71
2023/09/16 08:07:50;;;;;;;18.73;15.93;;;15.60;99.90;;;;;;5012635;28;20038;-75
2023/09/16 08:10:15;;;;;;;20.10;17.30;;;15.70;99.90;;;;;;5027228;28;20794;-76
2023/09/16 08:12:41;;;;;;;18.58;15.98;;;15.80;99.90;;;;;;5012323;28;20453;-76
2023/09/16 08:15:07;;;;;;;15.80;13.45;;;15.90;99.90;;;;;;5027512;28;20048;-75
2023/09/16 08:17:33;;;;;;;18.38;14.63;;;16.00;99.90;;;;;;5029391;28;20134;-76
2023/09/16 08:20:00;;;;;;;14.93;12.32;;;16.10;99.90;;;;;;5031201;28;20099;-74
2023/09/16 08:22:28;;;;;;;16.48;12.20;;;16.20;99.90;;;;;;5030019;28;20128;-76
2023/09/16 08:24:53;;;;;;;14.90;11.13;;;16.30;99.90;;;;;;5030282;28;20502;-74
2023/09/16 08:27:20;;;;;;;13.90;10.68;;;16.40;99.90;;;;;;5028729;28;20049;-75
2023/09/16 08:29:46;;;;;;;17.27;11.65;;;16.50;99.90;;;;;;5031268;28;20056;-75
2023/09/16 08:32:12;;;;;;;13.93;10.73;;;16.50;99.90;;;;;;5030332;28;20056;-75
2023/09/16 08:34:38;;;;;;;15.63;11.60;;;16.60;99.90;;;;;;5030107;28;20402;-75
2023/09/16 08:37:03;;;;;;;13.85;11.10;;;16.70;99.90;;;;;;5033477;28;20041;-75
2023/09/16 08:39:29;;;;;;;42.97;38.03;;;16.80;99.90;;;;;;5033545;28;20056;-77
2023/09/16 08:42:03;;;;;;;12.82;9.60;;;16.90;99.90;;;;;;5026851;28;20044;-75
2023/09/16 08:44:33;;;;;;;12.85;9.73;;;17.00;99.90;;;;;;5031915;28;20264;-75
2023/09/16 08:47:04;;;;;;;11.43;9.32;;;17.20;99.90;;;;;;5016993;28;20048;-72
2023/09/16 08:49:33;;;;;;;12.95;10.10;;;17.20;99.90;;;;;;5032766;28;20037;-72
2023/09/16 08:52:01;;;;;;;10.98;8.55;;;17.30;99.90;;;;;;5033826;28;20037;-71
2023/09/16 08:54:30;;;;;;;11.27;8.68;;;17.40;99.90;;;;;;5037323;28;20049;-72
2023/09/16 08:56:57;;;;;;;13.32;9.88;;;17.50;99.90;;;;;;5035509;28;20124;-72
2023/09/16 08:59:24;;;;;;;10.73;9.25;;;17.50;99.90;;;;;;5014323;28;20052;-75
2023/09/16 09:01:50;;;;;;;11.13;9.00;;;17.60;99.90;;;;;;5030308;28;20867;-74
2023/09/16 09:04:17;;;;;;;12.82;9.18;;;17.70;99.90;;;;;;5031198;28;20049;-74
2023/09/16 09:06:43;;;;;;;10.80;8.57;;;17.70;99.90;;;;;;5031166;28;20045;-74
2023/09/16 09:09:09;;;;;;;11.60;9.02;;;17.80;99.90;;;;;;5013500;28;20044;-72
2023/09/16 09:11:36;;;;;;;14.23;10.15;;;17.90;99.90;;;;;;5014597;28;20046;-72
2023/09/16 09:14:03;;;;;;;12.48;9.70;;;18.00;99.90;;;;;;5031354;28;20045;-72
2023/09/16 09:16:30;;;;;;;12.00;9.48;;;18.00;99.90;;;;;;5029631;28;20037;-72
2023/09/16 09:18:57;;;;;;;11.20;8.98;;;18.10;99.90;;;;;;5031149;28;20042;-67
2023/09/16 09:21:23;;;;;;;11.02;8.80;;;18.10;99.90;;;;;;5030485;28;20045;-67
2023/09/16 09:23:48;;;;;;;12.90;9.10;;;18.20;99.90;;;;;;5013744;28;20802;-67
2023/09/16 09:26:14;;;;;;;10.88;8.07;;;18.30;99.90;;;;;;5031193;28;20054;-67
2023/09/16 09:28:43;;;;;;;10.13;7.68;;;18.40;99.90;;;;;;5030663;28;20121;-67
2023/09/16 09:31:09;;;;;;;12.13;8.00;;;18.40;99.90;;;;;;5029892;28;20037;-67
2023/09/16 09:33:44;;;;;;;16.23;7.55;;;18.40;99.90;;;;;;5031115;28;20045;-66
2023/09/16 09:36:14;;;;;;;11.68;7.63;;;18.50;99.90;;;;;;5009847;28;20104;-67
2023/09/16 09:38:42;;;;;;;12.48;7.97;;;18.60;99.90;;;;;;5024743;28;20065;-67
2023/09/16 09:41:08;;;;;;;13.77;7.82;;;18.70;99.90;;;;;;5032338;28;20120;-67
2023/09/16 09:43:33;;;;;;;8.82;6.28;;;18.80;99.90;;;;;;5032209;28;20113;-66
2023/09/16 09:45:59;;;;;;;9.13;6.00;;;18.90;99.90;;;;;;5029902;28;20474;-66
2023/09/16 09:48:25;;;;;;;8.10;5.45;;;18.90;99.90;;;;;;5031358;28;20039;-66
2023/09/16 09:50:51;;;;;;;7.85;5.03;;;19.00;99.90;;;;;;5031314;28;20041;-66
2023/09/16 09:53:17;;;;;;;7.15;4.28;;;19.00;99.90;;;;;;5031902;28;20077;-67
2023/09/16 09:55:43;;;;;;;7.35;4.50;;;19.10;99.90;;;;;;5032740;28;20374;-66
2023/09/16 09:58:10;;;;;;;9.43;5.82;;;19.20;99.90;;;;;;5031121;28;20041;-66
2023/09/16 10:00:36;;;;;;;7.28;4.45;;;19.20;99.90;;;;;;5031334;28;20064;-66
2023/09/16 10:03:02;;;;;;;7.63;4.47;;;19.30;99.90;;;;;;5032186;28;20050;-65
2023/09/16 10:05:35;;;;;;;8.30;4.90;;;19.30;99.90;;;;;;5031318;28;20087;-67
2023/09/16 10:08:01;;;;;;;8.48;5.70;;;19.40;99.90;;;;;;5032216;28;20499;-66
2023/09/16 10:10:27;;;;;;;10.93;5.95;;;19.40;99.90;;;;;;5031410;28;20042;-67
2023/09/16 10:12:55;;;;;;;9.93;5.88;;;19.50;99.90;;;;;;5031255;28;20045;-67
2023/09/16 10:15:31;;;;;;;10.98;5.95;;;19.60;99.90;;;;;;5032994;28;20045;-67
2023/09/16 10:17:57;;;;;;;7.65;5.20;;;19.60;99.90;;;;;;5032112;28;20053;-67
2023/09/16 10:20:23;;;;;;;9.63;5.72;;;19.70;99.90;;;;;;4997636;28;20037;-67
2023/09/16 10:22:50;;;;;;;8.52;5.40;;;19.80;99.90;;;;;;5031906;28;20045;-67
2023/09/16 10:25:19;;;;;;;9.07;5.00;;;19.90;99.90;;;;;;5031260;28;20065;-67
2023/09/16 10:27:55;;;;;;;10.27;5.13;;;19.90;99.90;;;;;;5030858;28;20069;-67
2023/09/16 10:30:21;;;;;;;10.23;5.05;;;19.90;99.90;;;;;;5028002;28;20100;-67
2023/09/16 10:32:47;;;;;;;7.93;5.20;;;19.90;99.90;;;;;;5031487;28;20052;-67
2023/09/16 10:35:14;;;;;;;10.02;4.88;;;19.90;99.90;;;;;;5030599;28;20171;-67
2023/09/16 10:37:41;;;;;;;8.93;4.53;;;20.00;99.90;;;;;;5031533;28;20364;-68
2023/09/16 10:40:09;;;;;;;9.43;4.22;;;20.10;99.90;;;;;;5029827;28;20042;-68
2023/09/16 10:42:37;;;;;;;10.45;5.47;;;20.20;99.90;;;;;;5031047;28;20475;-69
2023/09/16 10:45:03;;;;;;;9.23;5.15;;;20.20;99.90;;;;;;5031322;28;20045;-68
2023/09/16 10:47:30;;;;;;;9.15;5.07;;;20.20;99.90;;;;;;5030146;28;20128;-67
2023/09/16 10:49:56;;;;;;;7.05;4.50;;;20.30;99.90;;;;;;5031251;28;20137;-68
2023/09/16 10:52:45;;;;;;;8.50;4.80;;;20.30;99.90;;;;;;5031042;28;20124;-67
2023/09/16 10:55:42;;;;;;;7.80;4.45;;;20.30;99.90;;;;;;5031641;28;20037;-68
2023/09/16 10:58:14;;;;;;;9.27;5.53;;;20.30;99.90;;;;;;5031048;28;20049;-68
2023/09/16 11:00:46;;;;;;;8.75;4.68;;;20.20;99.90;;;;;;5017267;28;20054;-67
2023/09/16 11:03:14;;;;;;;8.05;4.63;;;20.20;99.90;;;;;;5010202;28;20483;-62
2023/09/16 11:05:40;;;;;;;6.75;4.43;;;20.30;99.90;;;;;;5028956;28;20052;-63
2023/09/16 11:08:06;;;;;;;7.82;4.82;;;20.40;99.90;;;;;;5029032;28;20389;-63
2023/09/16 11:10:33;;;;;;;8.68;4.60;;;20.40;99.90;;;;;;5028279;28;20421;-63
2023/09/16 11:13:00;;;;;;;6.15;3.63;;;20.40;99.90;;;;;;5030382;28;20509;-63
2023/09/16 11:15:35;;;;;;;6.55;4.30;;;20.40;99.90;;;;;;5028977;28;20045;-64
2023/09/16 11:18:10;;;;;;;7.38;4.28;;;20.40;99.90;;;;;;5027206;28;20053;-63
2023/09/16 11:20:37;;;;;;;8.23;3.58;;;20.50;99.90;;;;;;5028093;28;20045;-64
2023/09/16 11:23:07;;;;;;;7.32;3.60;;;20.70;99.90;;;;;;5027862;28;20053;-63
2023/09/16 11:25:43;;;;;;;8.10;3.85;;;20.80;99.90;;;;;;5027805;28;20044;-64
2023/09/16 11:28:12;;;;;;;6.38;4.00;;;20.80;99.90;;;;;;5006399;28;20042;-63
2023/09/16 11:30:39;;;;;;;7.30;4.03;;;20.80;99.90;;;;;;5008979;28;20046;-64
2023/09/16 11:33:25;;;;;;;6.30;3.65;;;20.80;99.90;;;;;;4992448;28;20368;-64
2023/09/16 11:36:11;;;;;;;7.38;3.95;;;20.80;99.90;;;;;;5015357;28;20136;-63
2023/09/16 11:38:37;;;;;;;7.22;4.60;;;20.90;99.90;;;;;;5027079;28;20091;-63
2023/09/16 11:41:10;;;;;;;7.30;4.47;;;20.90;99.90;;;;;;5027839;28;20056;-63
2023/09/16 11:43:39;;;;;;;7.03;4.07;;;21.00;99.90;;;;;;5010579;28;20045;-63
2023/09/16 11:46:09;;;;;;;8.00;4.25;;;21.10;99.90;;;;;;5027980;28;20037;-63
2023/09/16 11:48:49;;;;;;;7.55;4.00;;;21.10;99.90;;;;;;5027574;28;20041;-63
2023/09/16 11:51:17;;;;;;;7.55;4.55;;;21.10;99.90;;;;;;5010449;28;20049;-63
2023/09/16 11:53:43;;;;;;;7.82;3.65;;;21.00;99.90;;;;;;5027139;28;20100;-63
2023/09/16 11:56:09;;;;;;;7.43;3.28;;;21.10;99.90;;;;;;5027816;28;20061;-63
2023/09/16 11:58:35;;;;;;;6.15;3.38;;;21.10;99.90;;;;;;5026872;28;20056;-63
2023/09/16 12:01:02;;;;;;;6.30;3.53;;;21.10;99.90;;;;;;5039563;28;20057;-63
2023/09/16 12:03:28;;;;;;;7.22;3.92;;;21.20;99.90;;;;;;5030714;28;20119;-63
2023/09/16 12:05:55;;;;;;;9.35;5.10;;;21.10;99.90;;;;;;5034693;28;20482;-63
2023/09/16 12:08:21;;;;;;;6.05;3.72;;;21.10;99.90;;;;;;5028217;28;20479;-63
2023/09/16 12:10:47;;;;;;;7.20;3.70;;;21.00;99.90;;;;;;5033209;28;20119;-63
2023/09/16 12:13:26;;;;;;;5.70;3.53;;;21.00;99.90;;;;;;5034066;28;20613;-63
2023/09/16 12:15:52;;;;;;;7.35;3.50;;;21.00;99.90;;;;;;5017842;28;20048;-63
2023/09/16 12:18:18;;;;;;;7.63;3.85;;;21.00;99.90;;;;;;5019016;28;20072;-63
2023/09/16 12:20:44;;;;;;;5.25;3.03;;;21.10;99.90;;;;;;5026339;28;20142;-63
2023/09/16 12:23:10;;;;;;;7.38;3.67;;;21.20;99.90;;;;;;5034475;28;20658;-63
2023/09/16 12:25:40;;;;;;;6.28;3.63;;;21.20;99.90;;;;;;5033571;28;20072;-63
2023/09/16 12:28:06;;;;;;;6.97;3.25;;;21.30;99.90;;;;;;5030875;28;20059;-63
2023/09/16 12:30:31;;;;;;;7.13;3.72;;;21.30;99.90;;;;;;5034371;28;20462;-63
2023/09/16 12:32:57;;;;;;;6.40;3.60;;;21.20;99.90;;;;;;5028619;28;20057;-63